Airfield :
LOGIN :

Register | Disclaimer

   EN    FR    IT 

 










Legend :    VFR   Marginal VFR   IFR   Intensive IFR   Very Intensive IFR
Visi :
Ceiling :
>= 8 km
>= 3000ft
5 to 8 km
1000 to 3000 ft
1500m to 5 km
500 to 1000 ft
800 to 1500m
200 to 500 ft
< 800m
< 200 ft
Symbols :   Thunderstorms  Fog  Heavy snow  Heavy precipitations  Wind > 20 kt
SIGMETs :     Misc.  Thunderstorms  Icing  Turbulence  Mountain Waves  Volcanic Ashes






- Airport Elevation : 463 ft
- IATA code : HME


DAUH - Oued Irara-Krim Belkacem

CURRENT METAR :
  • 120530Z 24013KT 6000 NSC 10/M03 Q1006

EXPIRED METARs :
  • 120500Z 24013KT 6000 NSC 10/M03 Q1006
  • 120430Z 23012KT 6000 NSC 10/M03 Q1006
  • 120400Z 23013KT 6000 NSC 10/M03 Q1006
  • 120330Z 23012KT 6000 NSC 11/M03 Q1006
  • 120300Z 23014KT 6000 NSC 11/M03 Q1006

TAF TAF DAUH
Valid from the 12 at 06:00 until the 13 at 06:00 UTC


120500Z 1206/1306 24012KT 8000 FEW040
PROB40
TEMPO 1206/1212 25015G30KT 3000 DRSA FEW040TCU
BECMG 1212/1215 32014KT



MET'MAP, your aeronautical weather chart ! - Copyright ORBIFLY December 2007 - Disclaimer

ORBIFLY MET'MAP TEAM :

Programming & Development : Alexandra Zaïnal
Concept & Development : Baudouin d'Aumeries
Co-Development & Prog : Marc-Olivier Méhu
Technical & hardware support : Manuel Goepfert

Contact : metmap@orbifly.com




SOURCES & CREDITS :

   NOAA